sensor_id;sensor_type;location;lat;lon;timestamp;pressure;altitude;pressure_sealevel;temperature;humidity
56074;BME280;41950;55.840;37.442;2023-02-16T00:00:16;100581.25;;;-3.54;72.20
56074;BME280;41950;55.840;37.442;2023-02-16T00:02:42;100571.88;;;-3.55;72.27
56074;BME280;41950;55.840;37.442;2023-02-16T00:05:24;100571.63;;;-3.59;72.36
56074;BME280;41950;55.840;37.442;2023-02-16T00:07:51;100564.38;;;-3.68;72.70
56074;BME280;41950;55.840;37.442;2023-02-16T00:10:17;100574.53;;;-3.68;72.53
56074;BME280;41950;55.840;37.442;2023-02-16T00:12:44;100564.22;;;-3.71;71.71
56074;BME280;41950;55.840;37.442;2023-02-16T00:15:28;100518.44;;;-4.05;71.63
56074;BME280;41950;55.840;37.442;2023-02-16T00:17:59;100562.78;;;-3.82;71.52
56074;BME280;41950;55.840;37.442;2023-02-16T00:20:25;100574.69;;;-3.81;71.57
56074;BME280;41950;55.840;37.442;2023-02-16T00:22:51;100568.03;;;-3.79;70.60
56074;BME280;41950;55.840;37.442;2023-02-16T00:25:17;100564.63;;;-3.80;70.43
56074;BME280;41950;55.840;37.442;2023-02-16T00:27:42;100499.78;;;-4.22;70.85
56074;BME280;41950;55.840;37.442;2023-02-16T00:30:16;100559.63;;;-3.78;71.10
56074;BME280;41950;55.840;37.442;2023-02-16T00:32:43;100561.69;;;-3.71;71.42
56074;BME280;41950;55.840;37.442;2023-02-16T00:35:13;100528.84;;;-3.84;71.04
56074;BME280;41950;55.840;37.442;2023-02-16T00:37:39;100543.00;;;-3.73;71.01
56074;BME280;41950;55.840;37.442;2023-02-16T00:40:05;100540.28;;;-3.76;71.06
56074;BME280;41950;55.840;37.442;2023-02-16T00:42:33;100560.44;;;-3.63;71.34
56074;BME280;41950;55.840;37.442;2023-02-16T00:44:59;100556.94;;;-3.65;71.41
56074;BME280;41950;55.840;37.442;2023-02-16T00:47:40;100566.47;;;-3.61;71.69
56074;BME280;41950;55.840;37.442;2023-02-16T00:52:53;100555.03;;;-3.69;71.98
56074;BME280;41950;55.840;37.442;2023-02-16T00:55:24;100549.00;;;-3.71;72.04
56074;BME280;41950;55.840;37.442;2023-02-16T00:57:55;100556.22;;;-3.62;72.52
56074;BME280;41950;55.840;37.442;2023-02-16T01:00:27;100562.88;;;-3.64;72.83
56074;BME280;41950;55.840;37.442;2023-02-16T01:02:57;100568.84;;;-3.64;72.87
56074;BME280;41950;55.840;37.442;2023-02-16T01:05:23;100564.38;;;-3.68;72.75
56074;BME280;41950;55.840;37.442;2023-02-16T01:07:49;100558.22;;;-3.73;72.67
56074;BME280;41950;55.840;37.442;2023-02-16T01:10:35;100560.81;;;-3.71;73.03
56074;BME280;41950;55.840;37.442;2023-02-16T01:13:16;100529.94;;;-3.95;72.93
56074;BME280;41950;55.840;37.442;2023-02-16T01:15:42;100552.09;;;-3.77;73.27
56074;BME280;41950;55.840;37.442;2023-02-16T01:18:12;100560.13;;;-3.69;73.32
56074;BME280;41950;55.840;37.442;2023-02-16T01:20:38;100565.19;;;-3.69;73.29
56074;BME280;41950;55.840;37.442;2023-02-16T01:23:03;100538.47;;;-3.79;73.30
56074;BME280;41950;55.840;37.442;2023-02-16T01:25:29;100551.94;;;-3.63;73.17
56074;BME280;41950;55.840;37.442;2023-02-16T01:27:55;100557.19;;;-3.60;73.14
56074;BME280;41950;55.840;37.442;2023-02-16T01:30:23;100546.31;;;-3.74;73.24
56074;BME280;41950;55.840;37.442;2023-02-16T01:32:49;100568.91;;;-3.62;73.11
56074;BME280;41950;55.840;37.442;2023-02-16T01:35:30;100563.53;;;-3.68;73.24
56074;BME280;41950;55.840;37.442;2023-02-16T01:37:57;100558.75;;;-3.79;73.53
56074;BME280;41950;55.840;37.442;2023-02-16T01:43:29;100572.22;;;-3.80;73.81
56074;BME280;41950;55.840;37.442;2023-02-16T01:46:10;100545.00;;;-3.98;73.69
56074;BME280;41950;55.840;37.442;2023-02-16T01:48:36;100550.22;;;-3.95;74.03
56074;BME280;41950;55.840;37.442;2023-02-16T01:51:20;100535.31;;;-4.06;73.96
56074;BME280;41950;55.840;37.442;2023-02-16T01:54:04;100566.00;;;-3.85;73.95
56074;BME280;41950;55.840;37.442;2023-02-16T02:01:58;100571.72;;;-3.89;74.42
56074;BME280;41950;55.840;37.442;2023-02-16T02:04:37;100542.69;;;-4.10;74.96
56074;BME280;41950;55.840;37.442;2023-02-16T02:13:20;100569.47;;;-3.99;74.91
56074;BME280;41950;55.840;37.442;2023-02-16T02:16:07;100555.84;;;-4.16;75.04
56074;BME280;41950;55.840;37.442;2023-02-16T02:18:33;100571.13;;;-3.99;75.21
56074;BME280;41950;55.840;37.442;2023-02-16T02:42:55;100564.72;;;-4.24;76.20
56074;BME280;41950;55.840;37.442;2023-02-16T02:45:33;100582.78;;;-4.18;76.59
56074;BME280;41950;55.840;37.442;2023-02-16T02:47:59;100558.88;;;-4.38;76.62
56074;BME280;41950;55.840;37.442;2023-02-16T02:50:48;100585.94;;;-4.22;76.64
56074;BME280;41950;55.840;37.442;2023-02-16T02:53:38;100587.69;;;-4.21;76.91
56074;BME280;41950;55.840;37.442;2023-02-16T02:56:07;100584.19;;;-4.23;76.97
56074;BME280;41950;55.840;37.442;2023-02-16T02:58:56;100592.94;;;-4.18;77.11
56074;BME280;41950;55.840;37.442;2023-02-16T03:01:44;100596.34;;;-4.17;77.69
56074;BME280;41950;55.840;37.442;2023-02-16T03:04:12;100591.97;;;-4.20;78.38
56074;BME280;41950;55.840;37.442;2023-02-16T03:06:46;100587.53;;;-4.24;78.53
56074;BME280;41950;55.840;37.442;2023-02-16T03:09:14;100594.09;;;-4.27;78.43
56074;BME280;41950;55.840;37.442;2023-02-16T03:11:40;100543.69;;;-4.52;79.15
56074;BME280;41950;55.840;37.442;2023-02-16T03:17:13;100464.16;;;-5.00;79.42
56074;BME280;41950;55.840;37.442;2023-02-16T03:20:01;100534.25;;;-4.55;79.55
56074;BME280;41950;55.840;37.442;2023-02-16T03:22:48;100569.97;;;-4.36;79.39
56074;BME280;41950;55.840;37.442;2023-02-16T03:25:35;100568.56;;;-4.30;79.53
56074;BME280;41950;55.840;37.442;2023-02-16T03:28:23;100562.72;;;-4.29;79.32
56074;BME280;41950;55.840;37.442;2023-02-16T03:31:11;100523.41;;;-4.52;79.13
56074;BME280;41950;55.840;37.442;2023-02-16T03:33:38;100560.97;;;-4.30;78.97
56074;BME280;41950;55.840;37.442;2023-02-16T03:36:06;100557.72;;;-4.28;78.98
56074;BME280;41950;55.840;37.442;2023-02-16T03:38:32;100512.84;;;-4.45;78.64
56074;BME280;41950;55.840;37.442;2023-02-16T03:40:58;100570.19;;;-4.16;78.28
56074;BME280;41950;55.840;37.442;2023-02-16T03:43:25;100564.50;;;-4.12;78.31
56074;BME280;41950;55.840;37.442;2023-02-16T03:45:51;100565.91;;;-4.17;78.23
56074;BME280;41950;55.840;37.442;2023-02-16T03:48:17;100556.56;;;-4.18;78.24
56074;BME280;41950;55.840;37.442;2023-02-16T03:50:43;100544.72;;;-4.34;78.20
56074;BME280;41950;55.840;37.442;2023-02-16T03:53:08;100569.50;;;-4.14;78.40
56074;BME280;41950;55.840;37.442;2023-02-16T03:55:42;100558.69;;;-4.26;78.10
56074;BME280;41950;55.840;37.442;2023-02-16T03:58:11;100562.25;;;-4.22;78.30
56074;BME280;41950;55.840;37.442;2023-02-16T04:00:37;100566.53;;;-4.21;78.43
56074;BME280;41950;55.840;37.442;2023-02-16T04:03:04;100568.13;;;-4.23;78.18
56074;BME280;41950;55.840;37.442;2023-02-16T04:05:30;100565.41;;;-4.26;78.08
56074;BME280;41950;55.840;37.442;2023-02-16T04:07:56;100563.59;;;-4.29;78.23
56074;BME280;41950;55.840;37.442;2023-02-16T04:10:22;100560.81;;;-4.33;78.08
56074;BME280;41950;55.840;37.442;2023-02-16T04:12:48;100560.72;;;-4.35;77.92
56074;BME280;41950;55.840;37.442;2023-02-16T04:15:18;100544.97;;;-4.44;78.05
56074;BME280;41950;55.840;37.442;2023-02-16T04:17:44;100553.44;;;-4.44;77.75
56074;BME280;41950;55.840;37.442;2023-02-16T04:20:13;100555.13;;;-4.44;77.84
56074;BME280;41950;55.840;37.442;2023-02-16T04:22:40;100548.06;;;-4.50;77.98
56074;BME280;41950;55.840;37.442;2023-02-16T04:25:06;100565.25;;;-4.44;77.91
56074;BME280;41950;55.840;37.442;2023-02-16T04:27:33;100570.41;;;-4.43;77.89
56074;BME280;41950;55.840;37.442;2023-02-16T04:29:59;100566.22;;;-4.42;78.24
56074;BME280;41950;55.840;37.442;2023-02-16T04:32:24;100556.94;;;-4.42;78.08
56074;BME280;41950;55.840;37.442;2023-02-16T04:34:50;100546.47;;;-4.48;78.40
56074;BME280;41950;55.840;37.442;2023-02-16T04:37:16;100534.97;;;-4.57;78.41
56074;BME280;41950;55.840;37.442;2023-02-16T04:39:41;100547.34;;;-4.47;78.72
56074;BME280;41950;55.840;37.442;2023-02-16T04:42:07;100531.22;;;-4.64;78.31
56074;BME280;41950;55.840;37.442;2023-02-16T04:44:33;100548.06;;;-4.50;78.38
56074;BME280;41950;55.840;37.442;2023-02-16T04:46:58;100557.31;;;-4.50;78.14
56074;BME280;41950;55.840;37.442;2023-02-16T04:49:24;100558.09;;;-4.51;78.06
56074;BME280;41950;55.840;37.442;2023-02-16T04:51:50;100542.72;;;-4.54;78.07
56074;BME280;41950;55.840;37.442;2023-02-16T04:54:16;100547.88;;;-4.53;78.18
56074;BME280;41950;55.840;37.442;2023-02-16T04:56:47;100553.13;;;-4.50;78.11
56074;BME280;41950;55.840;37.442;2023-02-16T04:59:14;100542.56;;;-4.57;78.25
56074;BME280;41950;55.840;37.442;2023-02-16T05:01:41;100556.78;;;-4.45;78.02
56074;BME280;41950;55.840;37.442;2023-02-16T05:04:07;100512.25;;;-4.71;77.76
56074;BME280;41950;55.840;37.442;2023-02-16T05:06:34;100549.78;;;-4.49;77.87
56074;BME280;41950;55.840;37.442;2023-02-16T05:09:01;100556.06;;;-4.42;77.84
56074;BME280;41950;55.840;37.442;2023-02-16T05:11:27;100541.25;;;-4.51;78.06
56074;BME280;41950;55.840;37.442;2023-02-16T05:14:23;100539.06;;;-4.59;77.66
56074;BME280;41950;55.840;37.442;2023-02-16T05:17:18;100565.34;;;-4.43;78.25
56074;BME280;41950;55.840;37.442;2023-02-16T05:19:46;100543.06;;;-4.48;78.01
56074;BME280;41950;55.840;37.442;2023-02-16T05:22:12;100553.72;;;-4.39;78.16
56074;BME280;41950;55.840;37.442;2023-02-16T05:24:38;100522.09;;;-4.46;77.98
56074;BME280;41950;55.840;37.442;2023-02-16T05:27:07;100555.78;;;-4.17;77.54
56074;BME280;41950;55.840;37.442;2023-02-16T05:29:33;100565.84;;;-4.19;77.53
56074;BME280;41950;55.840;37.442;2023-02-16T05:31:59;100518.22;;;-4.39;77.38
56074;BME280;41950;55.840;37.442;2023-02-16T05:34:25;100562.34;;;-4.06;77.31
56074;BME280;41950;55.840;37.442;2023-02-16T05:36:51;100561.47;;;-4.07;76.60
56074;BME280;41950;55.840;37.442;2023-02-16T05:39:16;100563.72;;;-4.11;76.65
56074;BME280;41950;55.840;37.442;2023-02-16T05:41:42;100561.47;;;-4.07;76.85
56074;BME280;41950;55.840;37.442;2023-02-16T05:44:09;100552.03;;;-4.09;76.68
56074;BME280;41950;55.840;37.442;2023-02-16T05:46:37;100560.03;;;-4.01;76.39
56074;BME280;41950;55.840;37.442;2023-02-16T05:49:03;100556.22;;;-4.10;76.40
56074;BME280;41950;55.840;37.442;2023-02-16T05:51:30;100539.44;;;-4.22;76.07
56074;BME280;41950;55.840;37.442;2023-02-16T05:53:56;100569.84;;;-4.08;76.24
56074;BME280;41950;55.840;37.442;2023-02-16T05:56:21;100557.97;;;-4.09;76.20
56074;BME280;41950;55.840;37.442;2023-02-16T05:58:47;100568.44;;;-4.17;75.97
56074;BME280;41950;55.840;37.442;2023-02-16T06:01:13;100565.13;;;-4.16;76.10
56074;BME280;41950;55.840;37.442;2023-02-16T06:03:39;100550.38;;;-4.23;76.05
56074;BME280;41950;55.840;37.442;2023-02-16T06:06:05;100544.84;;;-4.16;76.05
56074;BME280;41950;55.840;37.442;2023-02-16T06:08:31;100561.00;;;-3.99;75.85
56074;BME280;41950;55.840;37.442;2023-02-16T06:10:57;100568.84;;;-3.95;75.26
56074;BME280;41950;55.840;37.442;2023-02-16T06:13:24;100531.66;;;-4.11;75.17
56074;BME280;41950;55.840;37.442;2023-02-16T06:15:52;100566.41;;;-3.93;75.10
56074;BME280;41950;55.840;37.442;2023-02-16T06:18:18;100554.50;;;-3.94;75.01
56074;BME280;41950;55.840;37.442;2023-02-16T06:20:44;100534.84;;;-3.98;74.98
56074;BME280;41950;55.840;37.442;2023-02-16T06:23:11;100560.50;;;-3.78;74.70
56074;BME280;41950;55.840;37.442;2023-02-16T06:25:40;100547.75;;;-3.79;74.73
56074;BME280;41950;55.840;37.442;2023-02-16T06:28:06;100557.50;;;-3.70;74.80
56074;BME280;41950;55.840;37.442;2023-02-16T06:30:31;100564.88;;;-3.75;74.32
56074;BME280;41950;55.840;37.442;2023-02-16T06:32:57;100559.78;;;-3.75;74.42
56074;BME280;41950;55.840;37.442;2023-02-16T06:35:23;100522.25;;;-3.97;74.56
56074;BME280;41950;55.840;37.442;2023-02-16T06:37:48;100563.34;;;-3.71;75.15
56074;BME280;41950;55.840;37.442;2023-02-16T06:40:15;100558.59;;;-3.65;75.04
56074;BME280;41950;55.840;37.442;2023-02-16T06:42:42;100559.63;;;-3.62;74.26
56074;BME280;41950;55.840;37.442;2023-02-16T06:45:08;100559.00;;;-3.58;74.00
56074;BME280;41950;55.840;37.442;2023-02-16T06:47:35;100556.03;;;-3.51;73.94
56074;BME280;41950;55.840;37.442;2023-02-16T06:50:02;100538.78;;;-3.56;73.66
56074;BME280;41950;55.840;37.442;2023-02-16T06:52:29;100561.88;;;-3.35;73.37
56074;BME280;41950;55.840;37.442;2023-02-16T06:54:55;100538.34;;;-3.49;72.92
56074;BME280;41950;55.840;37.442;2023-02-16T06:57:20;100557.28;;;-3.43;72.94
56074;BME280;41950;55.840;37.442;2023-02-16T06:59:46;100556.50;;;-3.42;72.63
56074;BME280;41950;55.840;37.442;2023-02-16T07:02:12;100536.59;;;-3.50;72.31
56074;BME280;41950;55.840;37.442;2023-02-16T07:04:37;100562.38;;;-3.26;72.19
56074;BME280;41950;55.840;37.442;2023-02-16T07:07:03;100549.34;;;-3.32;71.74
56074;BME280;41950;55.840;37.442;2023-02-16T07:09:29;100537.53;;;-3.48;71.24
56074;BME280;41950;55.840;37.442;2023-02-16T07:11:54;100547.94;;;-3.44;71.66
56074;BME280;41950;55.840;37.442;2023-02-16T07:14:20;100559.97;;;-3.39;71.68
56074;BME280;41950;55.840;37.442;2023-02-16T07:16:46;100545.16;;;-3.48;71.41
56074;BME280;41950;55.840;37.442;2023-02-16T07:19:12;100554.75;;;-3.43;71.47
56074;BME280;41950;55.840;37.442;2023-02-16T07:21:38;100562.03;;;-3.32;71.73
56074;BME280;41950;55.840;37.442;2023-02-16T07:24:03;100523.72;;;-3.37;71.31
56074;BME280;41950;55.840;37.442;2023-02-16T07:26:29;100553.56;;;-3.17;71.39
56074;BME280;41950;55.840;37.442;2023-02-16T07:28:55;100528.44;;;-3.28;71.17
56074;BME280;41950;55.840;37.442;2023-02-16T07:31:20;100526.50;;;-3.16;71.04
56074;BME280;41950;55.840;37.442;2023-02-16T07:33:50;100552.69;;;-3.01;70.72
56074;BME280;41950;55.840;37.442;2023-02-16T07:36:16;100518.47;;;-3.07;70.89
56074;BME280;41950;55.840;37.442;2023-02-16T07:38:42;100541.03;;;-2.80;70.61
56074;BME280;41950;55.840;37.442;2023-02-16T07:41:08;100538.53;;;-2.62;70.31
56074;BME280;41950;55.840;37.442;2023-02-16T07:43:34;100529.31;;;-2.60;68.98
56074;BME280;41950;55.840;37.442;2023-02-16T07:46:00;100534.97;;;-2.65;68.55
56074;BME280;41950;55.840;37.442;2023-02-16T07:48:25;100525.06;;;-2.77;68.42
56074;BME280;41950;55.840;37.442;2023-02-16T07:50:51;100527.16;;;-2.70;68.85
56074;BME280;41950;55.840;37.442;2023-02-16T07:53:17;100486.31;;;-2.91;68.75
56074;BME280;41950;55.840;37.442;2023-02-16T07:55:44;100540.56;;;-2.55;68.43
56074;BME280;41950;55.840;37.442;2023-02-16T07:58:12;100545.06;;;-2.67;68.31
56074;BME280;41950;55.840;37.442;2023-02-16T08:01:10;100529.28;;;-2.77;68.34
56074;BME280;41950;55.840;37.442;2023-02-16T08:03:37;100528.81;;;-2.70;68.75
56074;BME280;41950;55.840;37.442;2023-02-16T08:06:03;100534.56;;;-2.57;68.62
56074;BME280;41950;55.840;37.442;2023-02-16T08:08:29;100535.44;;;-2.38;68.19
56074;BME280;41950;55.840;37.442;2023-02-16T08:10:55;100518.00;;;-2.49;67.90
56074;BME280;41950;55.840;37.442;2023-02-16T08:13:21;100532.44;;;-2.47;67.60
56074;BME280;41950;55.840;37.442;2023-02-16T08:15:46;100532.81;;;-2.58;67.99
56074;BME280;41950;55.840;37.442;2023-02-16T08:18:12;100535.56;;;-2.53;68.13
56074;BME280;41950;55.840;37.442;2023-02-16T08:20:38;100529.53;;;-2.55;67.76
56074;BME280;41950;55.840;37.442;2023-02-16T08:23:04;100518.06;;;-2.65;68.01
56074;BME280;41950;55.840;37.442;2023-02-16T08:25:35;100536.97;;;-2.42;68.02
56074;BME280;41950;55.840;37.442;2023-02-16T08:28:02;100545.47;;;-2.41;67.90
56074;BME280;41950;55.840;37.442;2023-02-16T08:30:28;100546.50;;;-2.38;67.84
56074;BME280;41950;55.840;37.442;2023-02-16T08:32:53;100532.38;;;-2.49;67.56
56074;BME280;41950;55.840;37.442;2023-02-16T08:35:26;100538.28;;;-2.32;67.64
56074;BME280;41950;55.840;37.442;2023-02-16T08:37:52;100541.91;;;-2.27;67.55
56074;BME280;41950;55.840;37.442;2023-02-16T08:40:17;100527.91;;;-2.19;67.54
56074;BME280;41950;55.840;37.442;2023-02-16T08:42:48;100529.47;;;-2.03;67.39
56074;BME280;41950;55.840;37.442;2023-02-16T08:45:14;100522.66;;;-2.04;66.98
56074;BME280;41950;55.840;37.442;2023-02-16T08:47:39;100520.84;;;-2.25;67.32
56074;BME280;41950;55.840;37.442;2023-02-16T08:50:05;100536.47;;;-2.35;67.82
56074;BME280;41950;55.840;37.442;2023-02-16T08:52:32;100528.41;;;-2.44;68.19
56074;BME280;41950;55.840;37.442;2023-02-16T08:54:58;100533.50;;;-2.44;68.35
56074;BME280;41950;55.840;37.442;2023-02-16T08:57:23;100531.56;;;-2.48;68.44
56074;BME280;41950;55.840;37.442;2023-02-16T08:59:49;100531.59;;;-2.30;68.39
56074;BME280;41950;55.840;37.442;2023-02-16T09:02:35;100517.41;;;-2.25;68.03
56074;BME280;41950;55.840;37.442;2023-02-16T09:05:00;100518.50;;;-2.20;68.02
56074;BME280;41950;55.840;37.442;2023-02-16T09:07:26;100501.81;;;-2.15;67.69
56074;BME280;41950;55.840;37.442;2023-02-16T09:09:52;100529.47;;;-2.03;67.14
56074;BME280;41950;55.840;37.442;2023-02-16T09:12:17;100509.59;;;-2.12;67.28
56074;BME280;41950;55.840;37.442;2023-02-16T09:14:43;100527.59;;;-1.90;66.49
56074;BME280;41950;55.840;37.442;2023-02-16T09:17:08;100498.34;;;-1.98;66.09
56074;BME280;41950;55.840;37.442;2023-02-16T09:19:34;100505.75;;;-1.84;65.97
56074;BME280;41950;55.840;37.442;2023-02-16T09:22:00;100507.22;;;-1.90;65.49
56074;BME280;41950;55.840;37.442;2023-02-16T09:24:25;100453.50;;;-2.33;65.32
56074;BME280;41950;55.840;37.442;2023-02-16T09:26:51;100519.00;;;-1.92;65.65
56074;BME280;41950;55.840;37.442;2023-02-16T09:29:17;100523.09;;;-1.76;65.51
56074;BME280;41950;55.840;37.442;2023-02-16T09:31:43;100509.47;;;-1.59;65.10
56074;BME280;41950;55.840;37.442;2023-02-16T09:34:20;100508.19;;;-1.30;64.49
56074;BME280;41950;55.840;37.442;2023-02-16T09:36:47;100500.88;;;-1.22;64.25
56074;BME280;41950;55.840;37.442;2023-02-16T09:39:14;100511.94;;;-1.02;63.78
56074;BME280;41950;55.840;37.442;2023-02-16T09:44:21;100511.31;;;-1.16;63.12
56074;BME280;41950;55.840;37.442;2023-02-16T09:46:55;100516.28;;;-1.00;63.23
56074;BME280;41950;55.840;37.442;2023-02-16T09:49:32;100514.88;;;-1.12;62.46
56074;BME280;41950;55.840;37.442;2023-02-16T09:54:59;100514.91;;;-1.32;63.12
56074;BME280;41950;55.840;37.442;2023-02-16T10:05:44;100499.38;;;-1.94;63.02
56074;BME280;41950;55.840;37.442;2023-02-16T10:08:14;100502.28;;;-2.04;63.95
56074;BME280;41950;55.840;37.442;2023-02-16T10:13:25;100476.31;;;-2.34;63.90
56074;BME280;41950;55.840;37.442;2023-02-16T10:15:53;100499.13;;;-2.36;64.20
56074;BME280;41950;55.840;37.442;2023-02-16T10:18:29;100494.25;;;-2.31;64.20
56074;BME280;41950;55.840;37.442;2023-02-16T10:20:57;100499.28;;;-2.33;64.03
56074;BME280;41950;55.840;37.442;2023-02-16T10:23:40;100503.00;;;-2.44;63.91
56074;BME280;41950;55.840;37.442;2023-02-16T10:28:47;100417.44;;;-2.97;63.75
56074;BME280;41950;55.840;37.442;2023-02-16T10:31:42;100492.03;;;-2.43;63.48
56074;BME280;41950;55.840;37.442;2023-02-16T10:39:38;100489.34;;;-2.46;63.53
56074;BME280;41950;55.840;37.442;2023-02-16T10:42:19;100492.03;;;-2.43;63.71
56074;BME280;41950;55.840;37.442;2023-02-16T10:47:42;100486.88;;;-2.44;63.33
56074;BME280;41950;55.840;37.442;2023-02-16T10:50:20;100487.28;;;-2.35;63.38
56074;BME280;41950;55.840;37.442;2023-02-16T10:52:48;100434.06;;;-2.68;62.34
56074;BME280;41950;55.840;37.442;2023-02-16T10:55:15;100466.53;;;-2.62;61.49
56074;BME280;41950;55.840;37.442;2023-02-16T10:57:41;100471.47;;;-2.65;61.78
56074;BME280;41950;55.840;37.442;2023-02-16T11:00:12;100489.69;;;-2.56;61.96
56074;BME280;41950;55.840;37.442;2023-02-16T11:02:45;100491.72;;;-2.49;62.50
56074;BME280;41950;55.840;37.442;2023-02-16T11:05:32;100492.38;;;-2.35;62.15
56074;BME280;41950;55.840;37.442;2023-02-16T11:07:59;100482.00;;;-2.40;61.40
56074;BME280;41950;55.840;37.442;2023-02-16T11:10:40;100475.50;;;-2.51;61.58
56074;BME280;41950;55.840;37.442;2023-02-16T11:13:29;100487.34;;;-2.52;61.44
56074;BME280;41950;55.840;37.442;2023-02-16T11:16:09;100481.41;;;-2.52;61.16
56074;BME280;41950;55.840;37.442;2023-02-16T11:18:40;100473.69;;;-2.54;61.47
56074;BME280;41950;55.840;37.442;2023-02-16T11:21:08;100473.78;;;-2.34;61.57
56074;BME280;41950;55.840;37.442;2023-02-16T11:23:36;100474.19;;;-2.25;61.51
56074;BME280;41950;55.840;37.442;2023-02-16T11:28:33;100477.25;;;-2.32;61.75
56074;BME280;41950;55.840;37.442;2023-02-16T11:34:05;100478.38;;;-2.45;61.38
56074;BME280;41950;55.840;37.442;2023-02-16T11:39:04;100469.63;;;-2.50;61.44
56074;BME280;41950;55.840;37.442;2023-02-16T11:41:32;100473.28;;;-2.45;61.15
56074;BME280;41950;55.840;37.442;2023-02-16T11:44:00;100475.44;;;-2.35;60.74
56074;BME280;41950;55.840;37.442;2023-02-16T11:46:28;100466.22;;;-2.33;59.96
56074;BME280;41950;55.840;37.442;2023-02-16T11:48:55;100462.88;;;-2.32;59.54
56074;BME280;41950;55.840;37.442;2023-02-16T11:51:31;100457.66;;;-2.35;59.14
56074;BME280;41950;55.840;37.442;2023-02-16T11:54:03;100475.78;;;-2.27;59.13
56074;BME280;41950;55.840;37.442;2023-02-16T11:56:31;100470.09;;;-2.41;59.42
56074;BME280;41950;55.840;37.442;2023-02-16T12:07:01;100461.50;;;-2.61;59.46
56074;BME280;41950;55.840;37.442;2023-02-16T12:15:35;100463.84;;;-2.65;59.16
56074;BME280;41950;55.840;37.442;2023-02-16T12:18:20;100461.44;;;-2.62;59.50
56074;BME280;41950;55.840;37.442;2023-02-16T12:23:42;100471.81;;;-2.58;59.68
56074;BME280;41950;55.840;37.442;2023-02-16T12:26:36;100458.81;;;-2.64;59.27
56074;BME280;41950;55.840;37.442;2023-02-16T12:31:52;100479.59;;;-2.72;59.67
56074;BME280;41950;55.840;37.442;2023-02-16T12:40:19;100446.56;;;-3.06;60.59
56074;BME280;41950;55.840;37.442;2023-02-16T12:45:32;100449.84;;;-3.09;61.07
56074;BME280;41950;55.840;37.442;2023-02-16T12:48:42;100485.38;;;-2.93;61.03
56074;BME280;41950;55.840;37.442;2023-02-16T12:50:48;100465.22;;;-3.06;60.61
56074;BME280;41950;55.840;37.442;2023-02-16T12:53:29;100475.94;;;-2.95;60.65
56074;BME280;41950;55.840;37.442;2023-02-16T12:56:07;100484.56;;;-2.92;60.54
56074;BME280;41950;55.840;37.442;2023-02-16T12:58:44;100487.59;;;-2.99;60.10
56074;BME280;41950;55.840;37.442;2023-02-16T13:01:12;100463.84;;;-3.17;59.61
56074;BME280;41950;55.840;37.442;2023-02-16T13:03:47;100481.91;;;-3.11;59.81
56074;BME280;41950;55.840;37.442;2023-02-16T13:06:36;100478.03;;;-3.21;59.70
56074;BME280;41950;55.840;37.442;2023-02-16T13:09:23;100474.72;;;-3.20;60.10
56074;BME280;41950;55.840;37.442;2023-02-16T13:15:10;100470.00;;;-3.12;60.41
56074;BME280;41950;55.840;37.442;2023-02-16T13:17:42;100477.91;;;-3.06;60.06
56074;BME280;41950;55.840;37.442;2023-02-16T13:20:15;100476.19;;;-3.07;60.30
56074;BME280;41950;55.840;37.442;2023-02-16T13:28:54;100471.69;;;-3.13;59.83
56074;BME280;41950;55.840;37.442;2023-02-16T13:37:28;100472.63;;;-3.11;60.06
56074;BME280;41950;55.840;37.442;2023-02-16T13:42:53;100468.25;;;-3.13;60.05
56074;BME280;41950;55.840;37.442;2023-02-16T13:45:25;100470.56;;;-3.18;59.81
56074;BME280;41950;55.840;37.442;2023-02-16T13:47:53;100464.25;;;-3.26;59.90
56074;BME280;41950;55.840;37.442;2023-02-16T13:52:47;100450.06;;;-3.38;59.66
56074;BME280;41950;55.840;37.442;2023-02-16T13:55:29;100468.47;;;-3.26;59.52
56074;BME280;41950;55.840;37.442;2023-02-16T13:58:02;100471.78;;;-3.27;59.82
56074;BME280;41950;55.840;37.442;2023-02-16T14:05:26;100469.78;;;-3.33;60.01
56074;BME280;41950;55.840;37.442;2023-02-16T14:08:27;100474.34;;;-3.27;60.34
56074;BME280;41950;55.840;37.442;2023-02-16T14:16:07;100451.91;;;-3.52;60.73
56074;BME280;41950;55.840;37.442;2023-02-16T14:19:04;100462.44;;;-3.61;60.53
56074;BME280;41950;55.840;37.442;2023-02-16T14:21:43;100476.16;;;-3.57;61.16
56074;BME280;41950;55.840;37.442;2023-02-16T14:24:32;100468.66;;;-3.56;61.39
56074;BME280;41950;55.840;37.442;2023-02-16T14:27:02;100471.63;;;-3.63;61.23
56074;BME280;41950;55.840;37.442;2023-02-16T14:29:36;100471.00;;;-3.59;61.52
56074;BME280;41950;55.840;37.442;2023-02-16T14:35:13;100476.63;;;-3.64;61.47
56074;BME280;41950;55.840;37.442;2023-02-16T14:40:52;100473.94;;;-3.67;61.48
56074;BME280;41950;55.840;37.442;2023-02-16T14:43:42;100482.13;;;-3.73;61.25
56074;BME280;41950;55.840;37.442;2023-02-16T14:49:23;100470.78;;;-3.80;61.66
56074;BME280;41950;55.840;37.442;2023-02-16T15:00:17;100469.03;;;-3.81;61.72
56074;BME280;41950;55.840;37.442;2023-02-16T15:03:15;100479.25;;;-3.79;61.70
56074;BME280;41950;55.840;37.442;2023-02-16T15:05:42;100481.78;;;-3.79;61.87
56074;BME280;41950;55.840;37.442;2023-02-16T15:08:17;100473.84;;;-3.85;61.94
56074;BME280;41950;55.840;37.442;2023-02-16T15:10:47;100475.19;;;-3.92;62.31
56074;BME280;41950;55.840;37.442;2023-02-16T15:13:25;100483.03;;;-3.87;62.21
56074;BME280;41950;55.840;37.442;2023-02-16T15:15:54;100462.34;;;-3.95;62.25
56074;BME280;41950;55.840;37.442;2023-02-16T15:18:44;100476.56;;;-3.82;62.35
56074;BME280;41950;55.840;37.442;2023-02-16T15:21:22;100471.56;;;-3.81;62.51
56074;BME280;41950;55.840;37.442;2023-02-16T15:24:01;100462.50;;;-3.92;62.70
56074;BME280;41950;55.840;37.442;2023-02-16T15:26:30;100465.03;;;-3.92;62.77
56074;BME280;41950;55.840;37.442;2023-02-16T15:29:00;100482.88;;;-3.90;63.23
56074;BME280;41950;55.840;37.442;2023-02-16T15:31:37;100476.78;;;-3.94;63.48